sensor_id;sensor_type;location;lat;lon;timestamp;pressure;altitude;pressure_sealevel;temperature;humidity
11692;BME280;33659;42.672;23.354;2023-03-03T00:00:39;94383.88;;;6.12;75.40
11692;BME280;33659;42.672;23.354;2023-03-03T00:03:07;94389.69;;;6.17;75.41
11692;BME280;33659;42.672;23.354;2023-03-03T00:05:35;94387.84;;;6.18;75.28
11692;BME280;33659;42.672;23.354;2023-03-03T00:08:02;94380.56;;;6.20;74.71
11692;BME280;33659;42.672;23.354;2023-03-03T00:10:29;94386.81;;;6.19;75.18
11692;BME280;33659;42.672;23.354;2023-03-03T00:12:57;94379.50;;;6.21;75.01
11692;BME280;33659;42.672;23.354;2023-03-03T00:15:25;94369.13;;;6.21;75.14
11692;BME280;33659;42.672;23.354;2023-03-03T00:17:53;94370.50;;;6.18;75.12
11692;BME280;33659;42.672;23.354;2023-03-03T00:20:32;94378.09;;;6.15;75.48
11692;BME280;33659;42.672;23.354;2023-03-03T00:23:13;94371.72;;;6.21;75.58
11692;BME280;33659;42.672;23.354;2023-03-03T00:25:43;94365.91;;;6.24;75.37
11692;BME280;33659;42.672;23.354;2023-03-03T00:28:21;94367.31;;;6.30;74.69
11692;BME280;33659;42.672;23.354;2023-03-03T00:30:48;94366.09;;;6.28;74.95
11692;BME280;33659;42.672;23.354;2023-03-03T00:33:22;94364.28;;;6.28;74.80
11692;BME280;33659;42.672;23.354;2023-03-03T00:35:53;94367.03;;;6.32;75.12
11692;BME280;33659;42.672;23.354;2023-03-03T00:38:20;94355.59;;;6.33;75.11
11692;BME280;33659;42.672;23.354;2023-03-03T00:40:47;94335.25;;;6.17;75.19
11692;BME280;33659;42.672;23.354;2023-03-03T00:43:20;94359.38;;;6.27;74.98
11692;BME280;33659;42.672;23.354;2023-03-03T00:45:49;94332.75;;;6.04;75.42
11692;BME280;33659;42.672;23.354;2023-03-03T00:48:27;94341.34;;;6.13;75.77
11692;BME280;33659;42.672;23.354;2023-03-03T00:50:55;94336.16;;;6.13;75.29
11692;BME280;33659;42.672;23.354;2023-03-03T00:53:24;94332.03;;;6.12;75.59
11692;BME280;33659;42.672;23.354;2023-03-03T00:55:51;94334.16;;;6.10;75.78
11692;BME280;33659;42.672;23.354;2023-03-03T00:58:20;94340.44;;;6.17;75.99
11692;BME280;33659;42.672;23.354;2023-03-03T01:00:48;94330.69;;;6.23;75.38
11692;BME280;33659;42.672;23.354;2023-03-03T01:03:17;94310.56;;;6.29;74.95
11692;BME280;33659;42.672;23.354;2023-03-03T01:05:44;94311.38;;;6.38;74.82
11692;BME280;33659;42.672;23.354;2023-03-03T01:08:11;94316.25;;;6.39;74.67
11692;BME280;33659;42.672;23.354;2023-03-03T01:10:40;94313.19;;;6.37;74.51
11692;BME280;33659;42.672;23.354;2023-03-03T01:13:07;94316.56;;;6.38;74.51
11692;BME280;33659;42.672;23.354;2023-03-03T01:15:37;94316.69;;;6.33;74.86
11692;BME280;33659;42.672;23.354;2023-03-03T01:18:04;94306.47;;;6.28;74.63
11692;BME280;33659;42.672;23.354;2023-03-03T01:20:31;94309.22;;;6.31;74.84
11692;BME280;33659;42.672;23.354;2023-03-03T01:22:57;94314.81;;;6.24;75.26
11692;BME280;33659;42.672;23.354;2023-03-03T01:25:24;94316.06;;;6.27;75.43
11692;BME280;33659;42.672;23.354;2023-03-03T01:27:51;94313.16;;;6.20;75.44
11692;BME280;33659;42.672;23.354;2023-03-03T01:30:17;94311.44;;;6.15;75.54
11692;BME280;33659;42.672;23.354;2023-03-03T01:32:45;94307.66;;;6.13;75.74
11692;BME280;33659;42.672;23.354;2023-03-03T01:35:12;94304.28;;;6.12;75.97
11692;BME280;33659;42.672;23.354;2023-03-03T01:37:39;94300.78;;;6.17;76.05
11692;BME280;33659;42.672;23.354;2023-03-03T01:40:10;94304.00;;;6.22;75.70
11692;BME280;33659;42.672;23.354;2023-03-03T01:42:38;94304.31;;;6.30;75.43
11692;BME280;33659;42.672;23.354;2023-03-03T01:45:16;94304.50;;;6.33;75.24
11692;BME280;33659;42.672;23.354;2023-03-03T01:47:49;94304.03;;;6.31;75.87
11692;BME280;33659;42.672;23.354;2023-03-03T01:50:30;94298.84;;;6.31;75.12
11692;BME280;33659;42.672;23.354;2023-03-03T01:53:01;94299.63;;;6.32;75.26
11692;BME280;33659;42.672;23.354;2023-03-03T01:55:32;94302.34;;;6.35;75.17
11692;BME280;33659;42.672;23.354;2023-03-03T01:58:02;94299.63;;;6.32;75.26
11692;BME280;33659;42.672;23.354;2023-03-03T02:00:30;94300.97;;;6.29;75.12
11692;BME280;33659;42.672;23.354;2023-03-03T02:02:59;94296.84;;;6.28;74.89
11692;BME280;33659;42.672;23.354;2023-03-03T02:05:26;94297.31;;;6.30;74.95
11692;BME280;33659;42.672;23.354;2023-03-03T02:07:54;94296.84;;;6.19;74.99
11692;BME280;33659;42.672;23.354;2023-03-03T02:10:21;94297.59;;;6.20;74.89
11692;BME280;33659;42.672;23.354;2023-03-03T02:12:50;94302.94;;;6.23;74.88
11692;BME280;33659;42.672;23.354;2023-03-03T02:15:20;94294.72;;;6.30;74.73
11692;BME280;33659;42.672;23.354;2023-03-03T02:17:48;94302.06;;;6.37;74.52
11692;BME280;33659;42.672;23.354;2023-03-03T02:20:26;94299.50;;;6.45;74.17
11692;BME280;33659;42.672;23.354;2023-03-03T02:22:59;94296.75;;;6.50;73.93
11692;BME280;33659;42.672;23.354;2023-03-03T02:25:36;94287.44;;;6.49;73.46
11692;BME280;33659;42.672;23.354;2023-03-03T02:28:06;94299.94;;;6.56;73.41
11692;BME280;33659;42.672;23.354;2023-03-03T02:30:36;94300.25;;;6.55;73.12
11692;BME280;33659;42.672;23.354;2023-03-03T02:33:04;94302.53;;;6.47;73.65
11692;BME280;33659;42.672;23.354;2023-03-03T02:35:32;94305.00;;;6.53;73.11
11692;BME280;33659;42.672;23.354;2023-03-03T02:38:06;94304.50;;;6.42;73.49
11692;BME280;33659;42.672;23.354;2023-03-03T02:40:39;94297.03;;;6.32;73.42
11692;BME280;33659;42.672;23.354;2023-03-03T02:43:10;94300.81;;;6.26;74.06
11692;BME280;33659;42.672;23.354;2023-03-03T02:45:41;94297.72;;;6.15;74.85
11692;BME280;33659;42.672;23.354;2023-03-03T02:48:08;94297.84;;;6.10;74.88
11692;BME280;33659;42.672;23.354;2023-03-03T02:50:35;94295.38;;;6.05;74.93
11692;BME280;33659;42.672;23.354;2023-03-03T02:53:02;94292.78;;;5.96;75.29
11692;BME280;33659;42.672;23.354;2023-03-03T02:55:28;94298.50;;;5.84;76.01
11692;BME280;33659;42.672;23.354;2023-03-03T02:57:56;94295.06;;;5.97;76.13
11692;BME280;33659;42.672;23.354;2023-03-03T03:00:24;94293.75;;;6.09;75.65
11692;BME280;33659;42.672;23.354;2023-03-03T03:02:50;94288.56;;;6.17;75.47
11692;BME280;33659;42.672;23.354;2023-03-03T03:05:17;94279.44;;;6.20;74.76
11692;BME280;33659;42.672;23.354;2023-03-03T03:07:44;94284.50;;;6.25;74.60
11692;BME280;33659;42.672;23.354;2023-03-03T03:10:10;94286.16;;;6.21;74.67
11692;BME280;33659;42.672;23.354;2023-03-03T03:12:37;94284.31;;;6.13;74.93
11692;BME280;33659;42.672;23.354;2023-03-03T03:15:05;94285.84;;;6.14;74.85
11692;BME280;33659;42.672;23.354;2023-03-03T03:17:36;94279.75;;;6.18;74.67
11692;BME280;33659;42.672;23.354;2023-03-03T03:20:03;94284.31;;;6.21;74.26
11692;BME280;33659;42.672;23.354;2023-03-03T03:22:30;94284.00;;;6.23;74.61
11692;BME280;33659;42.672;23.354;2023-03-03T03:24:56;94288.44;;;6.22;74.67
11692;BME280;33659;42.672;23.354;2023-03-03T03:27:23;94291.94;;;6.18;74.82
11692;BME280;33659;42.672;23.354;2023-03-03T03:29:50;94282.03;;;6.20;74.84
11692;BME280;33659;42.672;23.354;2023-03-03T03:32:16;94281.44;;;6.23;74.89
11692;BME280;33659;42.672;23.354;2023-03-03T03:34:44;94279.56;;;6.15;75.15
11692;BME280;33659;42.672;23.354;2023-03-03T03:37:11;94279.56;;;6.15;75.27
11692;BME280;33659;42.672;23.354;2023-03-03T03:39:38;94274.41;;;6.15;75.49
11692;BME280;33659;42.672;23.354;2023-03-03T03:42:05;94275.91;;;6.16;75.61
11692;BME280;33659;42.672;23.354;2023-03-03T03:44:31;94271.81;;;6.23;75.53
11692;BME280;33659;42.672;23.354;2023-03-03T03:46:58;94273.69;;;6.32;74.97
11692;BME280;33659;42.672;23.354;2023-03-03T03:49:25;94264.97;;;6.28;75.17
11692;BME280;33659;42.672;23.354;2023-03-03T03:51:53;94266.81;;;6.27;75.54
11692;BME280;33659;42.672;23.354;2023-03-03T03:54:19;94265.16;;;6.31;75.53
11692;BME280;33659;42.672;23.354;2023-03-03T03:56:46;94272.13;;;6.31;75.84
11692;BME280;33659;42.672;23.354;2023-03-03T03:59:13;94265.75;;;6.37;75.68
11692;BME280;33659;42.672;23.354;2023-03-03T04:01:39;94256.56;;;6.31;75.59
11692;BME280;33659;42.672;23.354;2023-03-03T04:04:06;94264.97;;;6.19;75.79
11692;BME280;33659;42.672;23.354;2023-03-03T04:06:33;94255.47;;;6.06;76.27
11692;BME280;33659;42.672;23.354;2023-03-03T04:09:01;94253.34;;;6.08;76.66
11692;BME280;33659;42.672;23.354;2023-03-03T04:11:28;94257.00;;;6.15;76.40
11692;BME280;33659;42.672;23.354;2023-03-03T04:13:55;94257.63;;;6.21;76.47
11692;BME280;33659;42.672;23.354;2023-03-03T04:16:21;94253.97;;;6.22;76.21
11692;BME280;33659;42.672;23.354;2023-03-03T04:18:48;94255.66;;;6.27;76.46
11692;BME280;33659;42.672;23.354;2023-03-03T04:21:15;94262.25;;;6.33;76.38
11692;BME280;33659;42.672;23.354;2023-03-03T04:23:42;94262.38;;;6.28;76.36
11692;BME280;33659;42.672;23.354;2023-03-03T04:26:10;94256.44;;;6.27;76.76
11692;BME280;33659;42.672;23.354;2023-03-03T04:28:36;94258.13;;;6.32;76.68
11692;BME280;33659;42.672;23.354;2023-03-03T04:31:03;94257.19;;;6.36;76.41
11692;BME280;33659;42.672;23.354;2023-03-03T04:33:30;94255.53;;;6.40;76.25
11692;BME280;33659;42.672;23.354;2023-03-03T04:35:56;94260.59;;;6.45;76.13
11692;BME280;33659;42.672;23.354;2023-03-03T04:38:23;94261.50;;;6.41;76.18
11692;BME280;33659;42.672;23.354;2023-03-03T04:40:50;94257.06;;;6.41;76.10
11692;BME280;33659;42.672;23.354;2023-03-03T04:43:18;94251.28;;;6.44;76.26
11692;BME280;33659;42.672;23.354;2023-03-03T04:45:45;94255.38;;;6.37;76.52
11692;BME280;33659;42.672;23.354;2023-03-03T04:48:12;94260.72;;;6.40;76.51
11692;BME280;33659;42.672;23.354;2023-03-03T04:50:38;94249.72;;;6.43;76.47
11692;BME280;33659;42.672;23.354;2023-03-03T04:53:05;94246.25;;;6.48;76.62
11692;BME280;33659;42.672;23.354;2023-03-03T04:55:31;94262.56;;;6.48;76.70
11692;BME280;33659;42.672;23.354;2023-03-03T04:57:59;94253.13;;;6.53;76.74
11692;BME280;33659;42.672;23.354;2023-03-03T05:00:27;94250.97;;;6.55;76.54
11692;BME280;33659;42.672;23.354;2023-03-03T05:02:53;94257.53;;;6.52;76.99
11692;BME280;33659;42.672;23.354;2023-03-03T05:05:20;94259.84;;;6.54;76.41
11692;BME280;33659;42.672;23.354;2023-03-03T05:07:47;94264.72;;;6.46;76.83
11692;BME280;33659;42.672;23.354;2023-03-03T05:10:13;94265.16;;;6.40;77.23
11692;BME280;33659;42.672;23.354;2023-03-03T05:12:40;94263.31;;;6.40;77.10
11692;BME280;33659;42.672;23.354;2023-03-03T05:15:07;94228.50;;;6.24;77.16
11692;BME280;33659;42.672;23.354;2023-03-03T05:17:35;94265.91;;;6.40;76.95
11692;BME280;33659;42.672;23.354;2023-03-03T05:20:02;94266.06;;;6.35;77.29
11692;BME280;33659;42.672;23.354;2023-03-03T05:22:29;94268.97;;;6.42;77.17
11692;BME280;33659;42.672;23.354;2023-03-03T05:24:56;94268.81;;;6.47;77.09
11692;BME280;33659;42.672;23.354;2023-03-03T05:27:23;94273.13;;;6.52;76.79
11692;BME280;33659;42.672;23.354;2023-03-03T05:29:49;94278.00;;;6.54;76.97
11692;BME280;33659;42.672;23.354;2023-03-03T05:32:16;94276.47;;;6.53;77.02
11692;BME280;33659;42.672;23.354;2023-03-03T05:34:44;94267.16;;;6.51;76.95
11692;BME280;33659;42.672;23.354;2023-03-03T05:37:11;94271.72;;;6.46;77.20
11692;BME280;33659;42.672;23.354;2023-03-03T05:39:37;94268.34;;;6.37;77.03
11692;BME280;33659;42.672;23.354;2023-03-03T05:42:04;94272.31;;;6.34;77.17
11692;BME280;33659;42.672;23.354;2023-03-03T05:44:31;94273.69;;;6.40;77.01
11692;BME280;33659;42.672;23.354;2023-03-03T05:46:58;94272.03;;;6.44;76.80
11692;BME280;33659;42.672;23.354;2023-03-03T05:49:25;94276.28;;;6.49;76.64
11692;BME280;33659;42.672;23.354;2023-03-03T05:51:53;94279.81;;;6.53;76.36
11692;BME280;33659;42.672;23.354;2023-03-03T05:54:20;94283.31;;;6.48;75.96
11692;BME280;33659;42.672;23.354;2023-03-03T05:56:46;94285.91;;;6.48;76.58
11692;BME280;33659;42.672;23.354;2023-03-03T05:59:13;94281.78;;;6.47;76.23
11692;BME280;33659;42.672;23.354;2023-03-03T06:01:40;94279.66;;;6.41;76.00
11692;BME280;33659;42.672;23.354;2023-03-03T06:04:06;94282.53;;;6.39;76.51
11692;BME280;33659;42.672;23.354;2023-03-03T06:06:34;94279.03;;;6.35;77.04
11692;BME280;33659;42.672;23.354;2023-03-03T06:09:02;94279.63;;;6.32;76.66
11692;BME280;33659;42.672;23.354;2023-03-03T06:11:29;94272.56;;;6.24;77.04
11692;BME280;33659;42.672;23.354;2023-03-03T06:13:56;94279.78;;;6.27;77.65
11692;BME280;33659;42.672;23.354;2023-03-03T06:16:22;94279.78;;;6.36;77.87
11692;BME280;33659;42.672;23.354;2023-03-03T06:18:49;94286.03;;;6.43;77.76
11692;BME280;33659;42.672;23.354;2023-03-03T06:21:16;94260.88;;;6.35;77.41
11692;BME280;33659;42.672;23.354;2023-03-03T06:23:42;94290.34;;;6.57;77.12
11692;BME280;33659;42.672;23.354;2023-03-03T06:26:10;94285.94;;;6.66;76.58
11692;BME280;33659;42.672;23.354;2023-03-03T06:28:37;94295.41;;;6.70;76.61
11692;BME280;33659;42.672;23.354;2023-03-03T06:31:04;94285.03;;;6.70;76.92
11692;BME280;33659;42.672;23.354;2023-03-03T06:33:31;94289.47;;;6.78;76.42
11692;BME280;33659;42.672;23.354;2023-03-03T06:35:57;94289.94;;;6.89;76.08
11692;BME280;33659;42.672;23.354;2023-03-03T06:38:25;94285.97;;;6.92;75.82
11692;BME280;33659;42.672;23.354;2023-03-03T06:40:52;94289.78;;;6.86;75.62
11692;BME280;33659;42.672;23.354;2023-03-03T06:43:20;94288.72;;;6.78;76.09
11692;BME280;33659;42.672;23.354;2023-03-03T06:45:46;94289.78;;;6.77;75.82
11692;BME280;33659;42.672;23.354;2023-03-03T06:48:13;94263.34;;;6.58;75.74
11692;BME280;33659;42.672;23.354;2023-03-03T06:50:39;94290.53;;;6.77;75.77
11692;BME280;33659;42.672;23.354;2023-03-03T06:53:10;94300.00;;;6.82;75.81
11692;BME280;33659;42.672;23.354;2023-03-03T06:55:38;94293.13;;;6.86;75.32
11692;BME280;33659;42.672;23.354;2023-03-03T06:58:10;94304.56;;;6.94;75.79
11692;BME280;33659;42.672;23.354;2023-03-03T07:00:41;94291.28;;;6.95;75.11
11692;BME280;33659;42.672;23.354;2023-03-03T07:03:14;94291.13;;;7.00;74.49
11692;BME280;33659;42.672;23.354;2023-03-03T07:05:42;94290.25;;;6.96;74.40
11692;BME280;33659;42.672;23.354;2023-03-03T07:08:13;94303.19;;;7.14;74.02
11692;BME280;33659;42.672;23.354;2023-03-03T07:10:40;94301.09;;;7.16;74.33
11692;BME280;33659;42.672;23.354;2023-03-03T07:13:16;94299.72;;;7.10;74.75
11692;BME280;33659;42.672;23.354;2023-03-03T07:15:45;94303.53;;;7.03;75.21
11692;BME280;33659;42.672;23.354;2023-03-03T07:18:24;94305.19;;;7.08;75.01
11692;BME280;33659;42.672;23.354;2023-03-03T07:20:54;94299.25;;;7.16;74.33
11692;BME280;33659;42.672;23.354;2023-03-03T07:23:23;94309.19;;;7.23;73.93
11692;BME280;33659;42.672;23.354;2023-03-03T07:25:51;94293.59;;;7.23;73.82
11692;BME280;33659;42.672;23.354;2023-03-03T07:28:22;94295.72;;;7.29;73.26
11692;BME280;33659;42.672;23.354;2023-03-03T07:30:50;94299.84;;;7.30;73.53
11692;BME280;33659;42.672;23.354;2023-03-03T07:33:22;94302.75;;;7.29;72.47
11692;BME280;33659;42.672;23.354;2023-03-03T07:35:51;94308.53;;;7.26;72.82
11692;BME280;33659;42.672;23.354;2023-03-03T07:38:29;94301.38;;;7.23;73.08
11692;BME280;33659;42.672;23.354;2023-03-03T07:40:58;94298.03;;;7.22;72.59
11692;BME280;33659;42.672;23.354;2023-03-03T07:43:30;94297.56;;;7.29;72.80
11692;BME280;33659;42.672;23.354;2023-03-03T07:46:13;94297.88;;;7.19;73.50
11692;BME280;33659;42.672;23.354;2023-03-03T07:48:43;94295.72;;;7.21;73.75
11692;BME280;33659;42.672;23.354;2023-03-03T07:51:12;94296.34;;;7.18;74.08
11692;BME280;33659;42.672;23.354;2023-03-03T07:53:41;94294.34;;;7.15;74.21
11692;BME280;33659;42.672;23.354;2023-03-03T07:56:16;94292.06;;;7.04;74.80
11692;BME280;33659;42.672;23.354;2023-03-03T07:58:47;94288.53;;;7.00;74.71
11692;BME280;33659;42.672;23.354;2023-03-03T08:01:35;94284.13;;;7.01;74.85
11692;BME280;33659;42.672;23.354;2023-03-03T08:04:12;94288.84;;;7.07;74.64
11692;BME280;33659;42.672;23.354;2023-03-03T08:06:46;94284.56;;;7.12;74.30
11692;BME280;33659;42.672;23.354;2023-03-03T08:09:42;94282.91;;;7.16;73.99
11692;BME280;33659;42.672;23.354;2023-03-03T08:12:31;94287.16;;;7.20;73.22
11692;BME280;33659;42.672;23.354;2023-03-03T08:15:13;94286.09;;;7.13;73.62
11692;BME280;33659;42.672;23.354;2023-03-03T08:17:43;94285.66;;;7.11;74.38
11692;BME280;33659;42.672;23.354;2023-03-03T08:20:40;94282.44;;;7.14;73.82
11692;BME280;33659;42.672;23.354;2023-03-03T08:23:08;94283.06;;;7.11;73.50
11692;BME280;33659;42.672;23.354;2023-03-03T08:25:35;94285.22;;;7.09;73.89
11692;BME280;33659;42.672;23.354;2023-03-03T08:28:02;94279.53;;;7.06;74.12
11692;BME280;33659;42.672;23.354;2023-03-03T08:30:29;94277.56;;;7.03;74.30
11692;BME280;33659;42.672;23.354;2023-03-03T08:32:57;94269.63;;;7.09;74.39
11692;BME280;33659;42.672;23.354;2023-03-03T08:35:25;94281.84;;;7.17;74.11
11692;BME280;33659;42.672;23.354;2023-03-03T08:37:52;94279.09;;;7.22;73.62
11692;BME280;33659;42.672;23.354;2023-03-03T08:40:19;94264.72;;;7.16;73.10
11692;BME280;33659;42.672;23.354;2023-03-03T08:42:46;94273.88;;;7.22;73.30
11692;BME280;33659;42.672;23.354;2023-03-03T08:45:13;94280.91;;;7.30;73.51
11692;BME280;33659;42.672;23.354;2023-03-03T08:47:40;94279.19;;;7.34;73.59
11692;BME280;33659;42.672;23.354;2023-03-03T08:50:09;94284.22;;;7.39;73.51
11692;BME280;33659;42.672;23.354;2023-03-03T08:52:36;94274.13;;;7.46;73.47
11692;BME280;33659;42.672;23.354;2023-03-03T08:55:02;94277.03;;;7.53;73.33
11692;BME280;33659;42.672;23.354;2023-03-03T08:57:29;94279.16;;;7.51;73.16
11692;BME280;33659;42.672;23.354;2023-03-03T08:59:56;94278.28;;;7.47;73.18
11692;BME280;33659;42.672;23.354;2023-03-03T09:02:23;94284.81;;;7.53;73.41
11692;BME280;33659;42.672;23.354;2023-03-03T09:04:50;94283.28;;;7.52;73.36
11692;BME280;33659;42.672;23.354;2023-03-03T09:07:18;94275.97;;;7.54;73.05
11692;BME280;33659;42.672;23.354;2023-03-03T09:09:44;94284.66;;;7.58;72.91
11692;BME280;33659;42.672;23.354;2023-03-03T09:12:14;94281.59;;;7.65;72.39
11692;BME280;33659;42.672;23.354;2023-03-03T09:14:42;94278.06;;;7.70;72.39
11692;BME280;33659;42.672;23.354;2023-03-03T09:17:21;94278.03;;;7.78;72.39
11692;BME280;33659;42.672;23.354;2023-03-03T09:19:49;94271.00;;;7.79;72.04
11692;BME280;33659;42.672;23.354;2023-03-03T09:22:20;94270.06;;;7.92;71.62
11692;BME280;33659;42.672;23.354;2023-03-03T09:24:48;94273.97;;;7.98;71.31
11692;BME280;33659;42.672;23.354;2023-03-03T09:27:18;94275.06;;;7.97;71.52
11692;BME280;33659;42.672;23.354;2023-03-03T09:29:48;94274.13;;;8.02;71.56
11692;BME280;33659;42.672;23.354;2023-03-03T09:32:25;94270.94;;;7.96;71.63
11692;BME280;33659;42.672;23.354;2023-03-03T09:34:52;94276.91;;;7.97;70.85
11692;BME280;33659;42.672;23.354;2023-03-03T09:37:22;94266.22;;;7.90;71.00
11692;BME280;33659;42.672;23.354;2023-03-03T09:39:50;94279.97;;;7.99;70.94
11692;BME280;33659;42.672;23.354;2023-03-03T09:42:49;94272.00;;;7.95;70.44
11692;BME280;33659;42.672;23.354;2023-03-03T09:45:40;94277.63;;;8.06;70.34
11692;BME280;33659;42.672;23.354;2023-03-03T09:48:34;94276.38;;;8.12;70.99
11692;BME280;33659;42.672;23.354;2023-03-03T09:51:14;94279.84;;;8.25;71.04
11692;BME280;33659;42.672;23.354;2023-03-03T09:53:57;94278.59;;;8.31;70.75
11692;BME280;33659;42.672;23.354;2023-03-03T09:56:31;94274.28;;;8.35;70.58
11692;BME280;33659;42.672;23.354;2023-03-03T09:59:08;94276.84;;;8.44;70.32
11692;BME280;33659;42.672;23.354;2023-03-03T10:01:56;94274.56;;;8.42;69.98
11692;BME280;33659;42.672;23.354;2023-03-03T10:05:08;94273.22;;;8.36;70.55
11692;BME280;33659;42.672;23.354;2023-03-03T10:07:44;94271.56;;;8.31;70.26
11692;BME280;33659;42.672;23.354;2023-03-03T10:10:23;94265.59;;;8.31;70.59
11692;BME280;33659;42.672;23.354;2023-03-03T10:13:11;94261.00;;;8.28;70.47
11692;BME280;33659;42.672;23.354;2023-03-03T10:15:50;94272.03;;;8.25;69.62
11692;BME280;33659;42.672;23.354;2023-03-03T10:18:28;94246.28;;;8.02;69.76
11692;BME280;33659;42.672;23.354;2023-03-03T10:21:09;94267.34;;;8.09;70.02
11692;BME280;33659;42.672;23.354;2023-03-03T10:23:44;94262.63;;;8.11;69.74
11692;BME280;33659;42.672;23.354;2023-03-03T10:29:12;94250.41;;;8.03;70.48
11692;BME280;33659;42.672;23.354;2023-03-03T10:34:50;94258.72;;;8.26;70.66
11692;BME280;33659;42.672;23.354;2023-03-03T10:37:25;94252.25;;;8.32;70.22
11692;BME280;33659;42.672;23.354;2023-03-03T10:40:00;94247.47;;;8.43;70.45
11692;BME280;33659;42.672;23.354;2023-03-03T10:42:45;94235.34;;;8.47;70.24
11692;BME280;33659;42.672;23.354;2023-03-03T10:45:30;94249.97;;;8.60;70.15
11692;BME280;33659;42.672;23.354;2023-03-03T10:48:13;94250.59;;;8.57;70.31
11692;BME280;33659;42.672;23.354;2023-03-03T10:50:50;94245.44;;;8.49;70.37
11692;BME280;33659;42.672;23.354;2023-03-03T10:53:22;94243.91;;;8.48;70.13
11692;BME280;33659;42.672;23.354;2023-03-03T10:55:59;94233.41;;;8.44;70.08
11692;BME280;33659;42.672;23.354;2023-03-03T10:58:45;94246.19;;;8.49;69.89
11692;BME280;33659;42.672;23.354;2023-03-03T11:01:23;94240.38;;;8.52;69.96
11692;BME280;33659;42.672;23.354;2023-03-03T11:04:10;94234.09;;;8.53;69.76
11692;BME280;33659;42.672;23.354;2023-03-03T11:06:45;94212.16;;;8.33;69.40
11692;BME280;33659;42.672;23.354;2023-03-03T11:09:29;94235.19;;;8.52;69.06
11692;BME280;33659;42.672;23.354;2023-03-03T11:12:01;94237.78;;;8.52;69.15
11692;BME280;33659;42.672;23.354;2023-03-03T11:14:37;94207.22;;;8.40;70.20
11692;BME280;33659;42.672;23.354;2023-03-03T11:17:11;94220.31;;;8.53;70.84
11692;BME280;33659;42.672;23.354;2023-03-03T11:19:57;94218.47;;;8.53;70.44
11692;BME280;33659;42.672;23.354;2023-03-03T11:22:33;94216.19;;;8.52;70.04
11692;BME280;33659;42.672;23.354;2023-03-03T11:25:13;94203.94;;;8.52;70.36
11692;BME280;33659;42.672;23.354;2023-03-03T11:28:12;94204.25;;;8.51;70.39
11692;BME280;33659;42.672;23.354;2023-03-03T11:31:02;94214.97;;;8.49;70.89
11692;BME280;33659;42.672;23.354;2023-03-03T11:33:38;94215.81;;;8.41;71.18
11692;BME280;33659;42.672;23.354;2023-03-03T11:36:11;94215.69;;;8.37;71.48
11692;BME280;33659;42.672;23.354;2023-03-03T11:38:50;94217.34;;;8.33;71.62
11692;BME280;33659;42.672;23.354;2023-03-03T11:41:26;94214.31;;;8.31;71.13
11692;BME280;33659;42.672;23.354;2023-03-03T11:43:58;94209.41;;;8.30;71.27
11692;BME280;33659;42.672;23.354;2023-03-03T11:46:35;94205.28;;;8.29;70.84
11692;BME280;33659;42.672;23.354;2023-03-03T11:49:06;94204.53;;;8.28;70.69
11692;BME280;33659;42.672;23.354;2023-03-03T11:51:43;94198.31;;;8.21;71.46
11692;BME280;33659;42.672;23.354;2023-03-03T11:54:18;94201.81;;;8.25;71.24
11692;BME280;33659;42.672;23.354;2023-03-03T11:56:47;94203.00;;;8.27;71.22
11692;BME280;33659;42.672;23.354;2023-03-03T11:59:38;94195.53;;;8.26;71.44
11692;BME280;33659;42.672;23.354;2023-03-03T12:02:22;94199.59;;;8.35;71.40
11692;BME280;33659;42.672;23.354;2023-03-03T12:04:57;94191.81;;;8.35;71.28
11692;BME280;33659;42.672;23.354;2023-03-03T12:07:30;94190.69;;;8.45;71.73
11692;BME280;33659;42.672;23.354;2023-03-03T12:10:07;94188.94;;;8.49;71.95
11692;BME280;33659;42.672;23.354;2023-03-03T12:12:42;94199.50;;;8.53;71.96
11692;BME280;33659;42.672;23.354;2023-03-03T12:15:18;94190.75;;;8.57;72.52
11692;BME280;33659;42.672;23.354;2023-03-03T12:18:03;94193.78;;;8.59;72.52
11692;BME280;33659;42.672;23.354;2023-03-03T12:20:41;94190.75;;;8.57;72.64
11692;BME280;33659;42.672;23.354;2023-03-03T12:23:23;94195.44;;;8.64;72.11
11692;BME280;33659;42.672;23.354;2023-03-03T12:25:59;94188.81;;;8.66;71.83
11692;BME280;33659;42.672;23.354;2023-03-03T12:28:33;94194.03;;;8.66;72.26
11692;BME280;33659;42.672;23.354;2023-03-03T12:31:15;94194.78;;;8.67;72.13
11692;BME280;33659;42.672;23.354;2023-03-03T12:33:52;94199.25;;;8.66;72.18
11692;BME280;33659;42.672;23.354;2023-03-03T12:36:41;94196.06;;;8.61;71.91
11692;BME280;33659;42.672;23.354;2023-03-03T12:39:22;94197.00;;;8.56;72.11
11692;BME280;33659;42.672;23.354;2023-03-03T12:41:56;94203.38;;;8.47;72.17
11692;BME280;33659;42.672;23.354;2023-03-03T12:44:33;94202.78;;;8.41;72.33
11692;BME280;33659;42.672;23.354;2023-03-03T12:47:05;94200.50;;;8.39;72.68
11692;BME280;33659;42.672;23.354;2023-03-03T12:49:39;94202.34;;;8.39;73.30
11692;BME280;33659;42.672;23.354;2023-03-03T12:52:18;94197.47;;;8.37;73.89
11692;BME280;33659;42.672;23.354;2023-03-03T12:55:03;94197.59;;;8.41;74.05
11692;BME280;33659;42.672;23.354;2023-03-03T12:57:35;94200.22;;;8.32;74.38
11692;BME280;33659;42.672;23.354;2023-03-03T13:00:23;94199.81;;;8.22;74.84
11692;BME280;33659;42.672;23.354;2023-03-03T13:02:59;94195.78;;;8.12;75.40
11692;BME280;33659;42.672;23.354;2023-03-03T13:05:33;94201.41;;;8.14;75.92
11692;BME280;33659;42.672;23.354;2023-03-03T13:08:23;94196.25;;;8.05;76.12
11692;BME280;33659;42.672;23.354;2023-03-03T13:11:00;94190.50;;;7.91;76.55
11692;BME280;33659;42.672;23.354;2023-03-03T13:13:36;94185.94;;;7.88;76.98
11692;BME280;33659;42.672;23.354;2023-03-03T13:16:09;94188.22;;;7.90;77.02
11692;BME280;33659;42.672;23.354;2023-03-03T13:18:47;94185.03;;;7.84;77.60
11692;BME280;33659;42.672;23.354;2023-03-03T13:21:21;94189.81;;;7.82;77.98
11692;BME280;33659;42.672;23.354;2023-03-03T13:23:52;94185.19;;;7.87;77.82
11692;BME280;33659;42.672;23.354;2023-03-03T13:26:24;94181.16;;;7.99;77.68
11692;BME280;33659;42.672;23.354;2023-03-03T13:28:58;94191.44;;;8.16;76.93